sensor_id;sensor_type;location;lat;lon;timestamp;pressure;altitude;pressure_sealevel;temperature;humidity
81299;BME280;70766;53.170;18.160;2023-07-31T00:00:57;100526.61;;;16.72;100.00
81299;BME280;70766;53.170;18.160;2023-07-31T00:03:27;100525.09;;;16.68;100.00
81299;BME280;70766;53.170;18.160;2023-07-31T00:05:55;100526.06;;;16.65;100.00
81299;BME280;70766;53.170;18.160;2023-07-31T00:08:23;100530.39;;;16.62;100.00
81299;BME280;70766;53.170;18.160;2023-07-31T00:10:52;100530.66;;;16.59;100.00
81299;BME280;70766;53.170;18.160;2023-07-31T00:13:20;100530.83;;;16.58;100.00
81299;BME280;70766;53.170;18.160;2023-07-31T00:15:48;100529.95;;;16.58;100.00
81299;BME280;70766;53.170;18.160;2023-07-31T00:18:17;100528.92;;;16.57;100.00
81299;BME280;70766;53.170;18.160;2023-07-31T00:20:45;100527.30;;;16.56;100.00
81299;BME280;70766;53.170;18.160;2023-07-31T00:23:13;100524.74;;;16.56;100.00
81299;BME280;70766;53.170;18.160;2023-07-31T00:25:41;100529.42;;;16.56;100.00
81299;BME280;70766;53.170;18.160;2023-07-31T00:28:09;100529.58;;;16.56;100.00
81299;BME280;70766;53.170;18.160;2023-07-31T00:30:39;100532.99;;;16.57;100.00
81299;BME280;70766;53.170;18.160;2023-07-31T00:33:07;100530.33;;;16.57;100.00
81299;BME280;70766;53.170;18.160;2023-07-31T00:35:37;100522.58;;;16.57;100.00
81299;BME280;70766;53.170;18.160;2023-07-31T00:38:05;100526.05;;;16.57;100.00
81299;BME280;70766;53.170;18.160;2023-07-31T00:40:37;100525.84;;;16.57;100.00
81299;BME280;70766;53.170;18.160;2023-07-31T00:43:05;100529.08;;;16.57;100.00
81299;BME280;70766;53.170;18.160;2023-07-31T00:45:35;100535.49;;;16.57;100.00
81299;BME280;70766;53.170;18.160;2023-07-31T00:48:04;100541.38;;;16.58;100.00
81299;BME280;70766;53.170;18.160;2023-07-31T00:50:35;100538.84;;;16.59;100.00
81299;BME280;70766;53.170;18.160;2023-07-31T00:53:03;100542.97;;;16.58;100.00
81299;BME280;70766;53.170;18.160;2023-07-31T00:55:33;100545.39;;;16.59;100.00
81299;BME280;70766;53.170;18.160;2023-07-31T00:58:02;100544.05;;;16.59;100.00
81299;BME280;70766;53.170;18.160;2023-07-31T01:00:30;100546.48;;;16.60;100.00
81299;BME280;70766;53.170;18.160;2023-07-31T01:02:58;100547.23;;;16.59;100.00
81299;BME280;70766;53.170;18.160;2023-07-31T01:06:07;100548.38;;;16.53;100.00
81299;BME280;70766;53.170;18.160;2023-07-31T01:11:29;100550.21;;;16.36;100.00
81299;BME280;70766;53.170;18.160;2023-07-31T01:13:58;100550.23;;;16.29;100.00
81299;BME280;70766;53.170;18.160;2023-07-31T01:16:26;100554.89;;;16.24;100.00
81299;BME280;70766;53.170;18.160;2023-07-31T01:18:55;100552.96;;;16.18;100.00
81299;BME280;70766;53.170;18.160;2023-07-31T01:24:19;100557.44;;;16.10;100.00
81299;BME280;70766;53.170;18.160;2023-07-31T01:27:05;100558.56;;;16.07;100.00
81299;BME280;70766;53.170;18.160;2023-07-31T01:30:11;100559.52;;;16.04;100.00
81299;BME280;70766;53.170;18.160;2023-07-31T01:32:47;100561.29;;;15.98;100.00
81299;BME280;70766;53.170;18.160;2023-07-31T01:35:16;100558.83;;;15.92;100.00
81299;BME280;70766;53.170;18.160;2023-07-31T01:37:45;100559.67;;;15.86;100.00
81299;BME280;70766;53.170;18.160;2023-07-31T01:40:13;100560.55;;;15.81;100.00
81299;BME280;70766;53.170;18.160;2023-07-31T01:42:42;100556.80;;;15.76;100.00
81299;BME280;70766;53.170;18.160;2023-07-31T01:45:11;100556.13;;;15.70;100.00
81299;BME280;70766;53.170;18.160;2023-07-31T01:47:39;100553.34;;;15.65;100.00
81299;BME280;70766;53.170;18.160;2023-07-31T01:50:07;100552.56;;;15.60;100.00
81299;BME280;70766;53.170;18.160;2023-07-31T01:52:36;100548.25;;;15.55;100.00
81299;BME280;70766;53.170;18.160;2023-07-31T01:55:05;100547.30;;;15.50;100.00
81299;BME280;70766;53.170;18.160;2023-07-31T01:57:33;100552.85;;;15.47;100.00
81299;BME280;70766;53.170;18.160;2023-07-31T02:00:01;100554.35;;;15.43;100.00
81299;BME280;70766;53.170;18.160;2023-07-31T02:02:38;100555.30;;;15.41;100.00
81299;BME280;70766;53.170;18.160;2023-07-31T02:05:06;100551.66;;;15.39;100.00
81299;BME280;70766;53.170;18.160;2023-07-31T02:07:35;100555.85;;;15.37;100.00
81299;BME280;70766;53.170;18.160;2023-07-31T02:10:03;100552.44;;;15.35;100.00
81299;BME280;70766;53.170;18.160;2023-07-31T02:12:31;100553.27;;;15.33;100.00
81299;BME280;70766;53.170;18.160;2023-07-31T02:15:00;100557.56;;;15.29;100.00
81299;BME280;70766;53.170;18.160;2023-07-31T02:17:28;100557.76;;;15.24;100.00
81299;BME280;70766;53.170;18.160;2023-07-31T02:19:57;100556.36;;;15.20;100.00
81299;BME280;70766;53.170;18.160;2023-07-31T02:22:25;100560.82;;;15.15;100.00
81299;BME280;70766;53.170;18.160;2023-07-31T02:24:53;100562.40;;;15.09;100.00
81299;BME280;70766;53.170;18.160;2023-07-31T02:27:22;100556.19;;;15.03;100.00
81299;BME280;70766;53.170;18.160;2023-07-31T02:29:55;100555.16;;;14.97;100.00
81299;BME280;70766;53.170;18.160;2023-07-31T02:32:23;100560.05;;;14.91;100.00
81299;BME280;70766;53.170;18.160;2023-07-31T02:34:51;100558.27;;;14.86;100.00
81299;BME280;70766;53.170;18.160;2023-07-31T02:37:19;100555.73;;;14.81;100.00
81299;BME280;70766;53.170;18.160;2023-07-31T02:39:47;100558.73;;;14.76;100.00
81299;BME280;70766;53.170;18.160;2023-07-31T02:42:15;100563.42;;;14.71;100.00
81299;BME280;70766;53.170;18.160;2023-07-31T02:44:43;100565.55;;;14.68;100.00
81299;BME280;70766;53.170;18.160;2023-07-31T02:47:12;100570.76;;;14.65;100.00
81299;BME280;70766;53.170;18.160;2023-07-31T02:49:40;100570.64;;;14.63;100.00
81299;BME280;70766;53.170;18.160;2023-07-31T02:52:08;100573.10;;;14.61;100.00
81299;BME280;70766;53.170;18.160;2023-07-31T02:54:36;100571.95;;;14.58;100.00
81299;BME280;70766;53.170;18.160;2023-07-31T02:57:04;100568.73;;;14.56;100.00
81299;BME280;70766;53.170;18.160;2023-07-31T02:59:32;100566.55;;;14.54;100.00
81299;BME280;70766;53.170;18.160;2023-07-31T03:02:00;100570.55;;;14.53;100.00
81299;BME280;70766;53.170;18.160;2023-07-31T03:04:29;100572.70;;;14.53;100.00
81299;BME280;70766;53.170;18.160;2023-07-31T03:06:57;100570.48;;;14.52;100.00
81299;BME280;70766;53.170;18.160;2023-07-31T03:09:25;100566.38;;;14.52;100.00
81299;BME280;70766;53.170;18.160;2023-07-31T03:11:53;100567.41;;;14.53;100.00
81299;BME280;70766;53.170;18.160;2023-07-31T03:14:21;100567.10;;;14.55;100.00
81299;BME280;70766;53.170;18.160;2023-07-31T03:16:49;100560.59;;;14.57;100.00
81299;BME280;70766;53.170;18.160;2023-07-31T03:19:17;100567.38;;;14.60;100.00
81299;BME280;70766;53.170;18.160;2023-07-31T03:21:45;100569.13;;;14.63;100.00
81299;BME280;70766;53.170;18.160;2023-07-31T03:24:13;100572.59;;;14.67;100.00
81299;BME280;70766;53.170;18.160;2023-07-31T03:26:41;100577.80;;;14.71;100.00
81299;BME280;70766;53.170;18.160;2023-07-31T03:29:09;100581.06;;;14.74;100.00
81299;BME280;70766;53.170;18.160;2023-07-31T03:31:37;100583.80;;;14.78;100.00
81299;BME280;70766;53.170;18.160;2023-07-31T03:34:05;100585.02;;;14.81;100.00
81299;BME280;70766;53.170;18.160;2023-07-31T03:36:33;100583.61;;;14.85;100.00
81299;BME280;70766;53.170;18.160;2023-07-31T03:39:02;100585.20;;;14.90;100.00
81299;BME280;70766;53.170;18.160;2023-07-31T03:41:31;100588.19;;;14.95;100.00
81299;BME280;70766;53.170;18.160;2023-07-31T03:43:59;100591.87;;;15.02;100.00
81299;BME280;70766;53.170;18.160;2023-07-31T03:46:27;100591.83;;;15.10;100.00
81299;BME280;70766;53.170;18.160;2023-07-31T03:48:55;100592.54;;;15.18;100.00
81299;BME280;70766;53.170;18.160;2023-07-31T03:51:23;100594.66;;;15.26;100.00
81299;BME280;70766;53.170;18.160;2023-07-31T03:53:51;100596.77;;;15.35;100.00
81299;BME280;70766;53.170;18.160;2023-07-31T03:56:19;100598.48;;;15.42;100.00
81299;BME280;70766;53.170;18.160;2023-07-31T03:58:47;100591.66;;;15.51;100.00
81299;BME280;70766;53.170;18.160;2023-07-31T04:01:15;100594.42;;;15.57;100.00
81299;BME280;70766;53.170;18.160;2023-07-31T04:03:43;100597.73;;;15.70;100.00
81299;BME280;70766;53.170;18.160;2023-07-31T04:06:11;100601.98;;;15.83;100.00
81299;BME280;70766;53.170;18.160;2023-07-31T04:08:40;100602.92;;;15.99;100.00
81299;BME280;70766;53.170;18.160;2023-07-31T04:11:08;100603.91;;;16.13;100.00
81299;BME280;70766;53.170;18.160;2023-07-31T04:13:36;100601.73;;;16.23;100.00
81299;BME280;70766;53.170;18.160;2023-07-31T04:16:04;100598.90;;;16.32;100.00
81299;BME280;70766;53.170;18.160;2023-07-31T04:18:32;100596.46;;;16.37;100.00
81299;BME280;70766;53.170;18.160;2023-07-31T04:21:00;100592.14;;;16.39;100.00
81299;BME280;70766;53.170;18.160;2023-07-31T04:23:29;100592.54;;;16.42;100.00
81299;BME280;70766;53.170;18.160;2023-07-31T04:25:58;100588.46;;;16.40;100.00
81299;BME280;70766;53.170;18.160;2023-07-31T04:28:26;100588.77;;;16.35;100.00
81299;BME280;70766;53.170;18.160;2023-07-31T04:30:54;100590.97;;;16.32;100.00
81299;BME280;70766;53.170;18.160;2023-07-31T04:33:23;100588.97;;;16.30;100.00
81299;BME280;70766;53.170;18.160;2023-07-31T04:35:54;100586.42;;;16.29;100.00
81299;BME280;70766;53.170;18.160;2023-07-31T04:38:22;100585.02;;;16.27;100.00
81299;BME280;70766;53.170;18.160;2023-07-31T04:40:50;100580.58;;;16.27;100.00
81299;BME280;70766;53.170;18.160;2023-07-31T04:43:18;100584.14;;;16.28;100.00
81299;BME280;70766;53.170;18.160;2023-07-31T04:45:46;100583.51;;;16.31;100.00
81299;BME280;70766;53.170;18.160;2023-07-31T04:48:15;100589.58;;;16.45;100.00
81299;BME280;70766;53.170;18.160;2023-07-31T04:50:44;100588.21;;;16.61;100.00
81299;BME280;70766;53.170;18.160;2023-07-31T04:53:12;100593.45;;;16.80;100.00
81299;BME280;70766;53.170;18.160;2023-07-31T04:55:40;100590.16;;;16.97;100.00
81299;BME280;70766;53.170;18.160;2023-07-31T04:58:09;100591.03;;;17.17;100.00
81299;BME280;70766;53.170;18.160;2023-07-31T05:00:37;100591.80;;;17.63;100.00
81299;BME280;70766;53.170;18.160;2023-07-31T05:03:05;100596.87;;;19.00;100.00
81299;BME280;70766;53.170;18.160;2023-07-31T05:05:34;100593.78;;;19.74;94.47
81299;BME280;70766;53.170;18.160;2023-07-31T05:08:02;100590.90;;;20.73;87.70
81299;BME280;70766;53.170;18.160;2023-07-31T05:10:30;100587.05;;;21.84;81.95
81299;BME280;70766;53.170;18.160;2023-07-31T05:12:59;100588.80;;;22.56;71.55
81299;BME280;70766;53.170;18.160;2023-07-31T05:15:29;100592.91;;;22.91;73.31
81299;BME280;70766;53.170;18.160;2023-07-31T05:17:57;100591.69;;;22.85;69.08
81299;BME280;70766;53.170;18.160;2023-07-31T05:20:26;100591.05;;;22.53;67.74
81299;BME280;70766;53.170;18.160;2023-07-31T05:22:55;100591.72;;;22.09;67.88
81299;BME280;70766;53.170;18.160;2023-07-31T05:25:23;100590.77;;;21.71;65.01
81299;BME280;70766;53.170;18.160;2023-07-31T05:27:51;100595.33;;;21.78;67.44
81299;BME280;70766;53.170;18.160;2023-07-31T05:30:19;100595.38;;;21.69;63.55
81299;BME280;70766;53.170;18.160;2023-07-31T05:32:49;100599.80;;;21.25;66.96
81299;BME280;70766;53.170;18.160;2023-07-31T05:35:17;100598.74;;;21.45;66.97
81299;BME280;70766;53.170;18.160;2023-07-31T05:37:45;100597.30;;;22.24;61.30
81299;BME280;70766;53.170;18.160;2023-07-31T05:40:14;100590.06;;;22.68;58.83
81299;BME280;70766;53.170;18.160;2023-07-31T05:42:42;100586.64;;;22.81;57.03
81299;BME280;70766;53.170;18.160;2023-07-31T05:45:10;100588.52;;;23.25;56.85
81299;BME280;70766;53.170;18.160;2023-07-31T05:47:39;100584.25;;;23.65;56.24
81299;BME280;70766;53.170;18.160;2023-07-31T05:50:07;100585.54;;;24.18;54.88
81299;BME280;70766;53.170;18.160;2023-07-31T05:52:35;100584.53;;;24.58;53.07
81299;BME280;70766;53.170;18.160;2023-07-31T05:55:04;100579.89;;;24.36;52.42
81299;BME280;70766;53.170;18.160;2023-07-31T05:57:32;100580.33;;;24.19;50.62
81299;BME280;70766;53.170;18.160;2023-07-31T06:00:00;100582.10;;;24.22;50.36
81299;BME280;70766;53.170;18.160;2023-07-31T06:02:28;100576.92;;;24.54;51.18
81299;BME280;70766;53.170;18.160;2023-07-31T06:04:56;100574.95;;;24.69;50.63
81299;BME280;70766;53.170;18.160;2023-07-31T06:07:25;100582.45;;;24.74;49.56
81299;BME280;70766;53.170;18.160;2023-07-31T06:09:53;100583.20;;;24.85;49.53
81299;BME280;70766;53.170;18.160;2023-07-31T06:12:22;100587.58;;;24.96;48.94
81299;BME280;70766;53.170;18.160;2023-07-31T06:14:50;100589.81;;;24.95;49.04
81299;BME280;70766;53.170;18.160;2023-07-31T06:17:18;100590.06;;;24.97;48.84
81299;BME280;70766;53.170;18.160;2023-07-31T06:19:47;100585.42;;;25.21;48.92
81299;BME280;70766;53.170;18.160;2023-07-31T06:22:15;100583.88;;;25.72;50.17
81299;BME280;70766;53.170;18.160;2023-07-31T06:24:43;100575.54;;;26.40;49.80
81299;BME280;70766;53.170;18.160;2023-07-31T06:27:11;100581.69;;;26.83;48.49
81299;BME280;70766;53.170;18.160;2023-07-31T06:29:39;100583.21;;;26.30;47.08
81299;BME280;70766;53.170;18.160;2023-07-31T06:32:07;100587.23;;;26.54;48.05
81299;BME280;70766;53.170;18.160;2023-07-31T06:34:35;100583.42;;;26.69;46.95
81299;BME280;70766;53.170;18.160;2023-07-31T06:37:04;100583.30;;;26.56;47.05
81299;BME280;70766;53.170;18.160;2023-07-31T06:39:32;100579.80;;;26.37;45.32
81299;BME280;70766;53.170;18.160;2023-07-31T06:42:00;100584.79;;;26.20;46.33
81299;BME280;70766;53.170;18.160;2023-07-31T06:44:28;100585.47;;;25.82;46.47
81299;BME280;70766;53.170;18.160;2023-07-31T06:46:56;100590.93;;;25.41;47.30
81299;BME280;70766;53.170;18.160;2023-07-31T06:49:25;100589.27;;;25.33;47.36
81299;BME280;70766;53.170;18.160;2023-07-31T06:51:53;100587.54;;;25.14;47.73
81299;BME280;70766;53.170;18.160;2023-07-31T06:54:21;100586.13;;;25.00;48.48
81299;BME280;70766;53.170;18.160;2023-07-31T06:56:49;100589.77;;;24.47;47.86
81299;BME280;70766;53.170;18.160;2023-07-31T06:59:17;100590.07;;;24.57;47.15
81299;BME280;70766;53.170;18.160;2023-07-31T07:01:45;100593.20;;;24.47;47.25
81299;BME280;70766;53.170;18.160;2023-07-31T07:04:13;100590.02;;;24.30;48.05
81299;BME280;70766;53.170;18.160;2023-07-31T07:06:41;100589.14;;;24.09;49.23
81299;BME280;70766;53.170;18.160;2023-07-31T07:09:10;100590.95;;;24.14;49.90
81299;BME280;70766;53.170;18.160;2023-07-31T07:11:38;100588.94;;;23.74;49.63
81299;BME280;70766;53.170;18.160;2023-07-31T07:14:06;100585.71;;;23.72;50.01
81299;BME280;70766;53.170;18.160;2023-07-31T07:16:34;100585.17;;;23.72;50.70
81299;BME280;70766;53.170;18.160;2023-07-31T07:19:02;100581.15;;;23.68;50.56
81299;BME280;70766;53.170;18.160;2023-07-31T07:21:32;100588.48;;;23.47;51.67
81299;BME280;70766;53.170;18.160;2023-07-31T07:24:00;100590.16;;;23.12;51.00
81299;BME280;70766;53.170;18.160;2023-07-31T07:26:28;100589.81;;;22.76;52.07
81299;BME280;70766;53.170;18.160;2023-07-31T07:28:59;100584.63;;;22.61;52.11
81299;BME280;70766;53.170;18.160;2023-07-31T07:31:29;100589.95;;;22.51;53.19
81299;BME280;70766;53.170;18.160;2023-07-31T07:33:58;100593.68;;;22.35;53.49
81299;BME280;70766;53.170;18.160;2023-07-31T07:36:27;100589.86;;;22.47;53.06
81299;BME280;70766;53.170;18.160;2023-07-31T07:38:55;100592.45;;;22.26;53.61
81299;BME280;70766;53.170;18.160;2023-07-31T07:41:25;100591.16;;;22.65;53.35
81299;BME280;70766;53.170;18.160;2023-07-31T07:43:53;100594.63;;;22.88;52.40
81299;BME280;70766;53.170;18.160;2023-07-31T07:46:21;100597.67;;;23.12;51.61
81299;BME280;70766;53.170;18.160;2023-07-31T07:48:50;100599.73;;;23.25;51.45
81299;BME280;70766;53.170;18.160;2023-07-31T07:51:18;100594.00;;;23.38;50.77
81299;BME280;70766;53.170;18.160;2023-07-31T07:53:46;100586.11;;;23.53;50.11
81299;BME280;70766;53.170;18.160;2023-07-31T07:56:14;100585.36;;;23.87;50.41
81299;BME280;70766;53.170;18.160;2023-07-31T07:58:42;100592.09;;;24.01;50.73
81299;BME280;70766;53.170;18.160;2023-07-31T08:01:10;100587.35;;;24.12;50.63
81299;BME280;70766;53.170;18.160;2023-07-31T08:03:38;100589.97;;;23.85;51.18
81299;BME280;70766;53.170;18.160;2023-07-31T08:06:07;100592.38;;;23.63;51.47
81299;BME280;70766;53.170;18.160;2023-07-31T08:08:37;100589.56;;;23.37;52.50
81299;BME280;70766;53.170;18.160;2023-07-31T08:11:06;100585.83;;;23.22;52.43
81299;BME280;70766;53.170;18.160;2023-07-31T08:13:34;100585.85;;;23.07;51.85
81299;BME280;70766;53.170;18.160;2023-07-31T08:16:04;100582.27;;;22.85;52.62
81299;BME280;70766;53.170;18.160;2023-07-31T08:18:32;100586.55;;;22.64;53.69
81299;BME280;70766;53.170;18.160;2023-07-31T08:21:02;100584.90;;;22.54;53.38
81299;BME280;70766;53.170;18.160;2023-07-31T08:23:30;100585.21;;;22.62;53.27
81299;BME280;70766;53.170;18.160;2023-07-31T08:25:59;100584.38;;;22.61;52.75
81299;BME280;70766;53.170;18.160;2023-07-31T08:28:27;100584.21;;;22.63;53.19
81299;BME280;70766;53.170;18.160;2023-07-31T08:30:55;100585.58;;;22.66;53.59
81299;BME280;70766;53.170;18.160;2023-07-31T08:33:23;100587.95;;;22.65;52.35
81299;BME280;70766;53.170;18.160;2023-07-31T08:35:51;100584.29;;;22.59;52.67
81299;BME280;70766;53.170;18.160;2023-07-31T08:38:19;100580.89;;;22.74;53.59
81299;BME280;70766;53.170;18.160;2023-07-31T08:40:47;100580.38;;;22.78;52.38
81299;BME280;70766;53.170;18.160;2023-07-31T08:43:15;100576.48;;;22.80;52.76
81299;BME280;70766;53.170;18.160;2023-07-31T08:45:44;100575.46;;;22.74;52.62
81299;BME280;70766;53.170;18.160;2023-07-31T08:48:15;100568.10;;;22.76;52.24
81299;BME280;70766;53.170;18.160;2023-07-31T08:50:43;100571.58;;;22.77;51.04
81299;BME280;70766;53.170;18.160;2023-07-31T08:53:11;100570.52;;;22.71;51.23
81299;BME280;70766;53.170;18.160;2023-07-31T08:55:40;100569.38;;;22.88;51.56
81299;BME280;70766;53.170;18.160;2023-07-31T08:58:09;100563.57;;;23.31;51.03
81299;BME280;70766;53.170;18.160;2023-07-31T09:00:38;100563.02;;;24.20;50.37
81299;BME280;70766;53.170;18.160;2023-07-31T09:03:18;100563.78;;;24.78;47.02
81299;BME280;70766;53.170;18.160;2023-07-31T09:05:47;100563.15;;;24.65;46.21
81299;BME280;70766;53.170;18.160;2023-07-31T09:08:18;100564.09;;;24.49;47.73
81299;BME280;70766;53.170;18.160;2023-07-31T09:10:48;100564.60;;;24.39;46.41
81299;BME280;70766;53.170;18.160;2023-07-31T09:13:17;100561.23;;;24.76;46.88
81299;BME280;70766;53.170;18.160;2023-07-31T09:15:46;100554.04;;;24.66;45.15
81299;BME280;70766;53.170;18.160;2023-07-31T09:18:14;100556.31;;;24.46;47.30
81299;BME280;70766;53.170;18.160;2023-07-31T09:21:00;100553.02;;;24.28;47.06
81299;BME280;70766;53.170;18.160;2023-07-31T09:23:47;100547.90;;;24.16;47.56
81299;BME280;70766;53.170;18.160;2023-07-31T09:26:34;100548.98;;;24.22;48.03
81299;BME280;70766;53.170;18.160;2023-07-31T09:29:05;100542.30;;;24.10;47.58
81299;BME280;70766;53.170;18.160;2023-07-31T09:31:40;100537.60;;;24.14;48.00
81299;BME280;70766;53.170;18.160;2023-07-31T09:34:13;100535.61;;;24.16;48.40
81299;BME280;70766;53.170;18.160;2023-07-31T09:36:49;100535.80;;;24.34;48.28
81299;BME280;70766;53.170;18.160;2023-07-31T09:39:18;100531.00;;;24.45;47.87
81299;BME280;70766;53.170;18.160;2023-07-31T09:41:53;100533.84;;;24.34;49.04
81299;BME280;70766;53.170;18.160;2023-07-31T09:44:41;100529.54;;;24.14;49.39
81299;BME280;70766;53.170;18.160;2023-07-31T09:47:21;100522.91;;;23.64;49.64
81299;BME280;70766;53.170;18.160;2023-07-31T09:49:53;100518.30;;;23.21;51.12
81299;BME280;70766;53.170;18.160;2023-07-31T09:52:22;100520.86;;;23.27;51.56
81299;BME280;70766;53.170;18.160;2023-07-31T09:54:50;100519.41;;;23.40;50.93
81299;BME280;70766;53.170;18.160;2023-07-31T09:57:21;100515.63;;;23.24;51.52
81299;BME280;70766;53.170;18.160;2023-07-31T09:59:52;100506.20;;;22.83;51.91
81299;BME280;70766;53.170;18.160;2023-07-31T10:02:22;100506.71;;;22.43;52.92
81299;BME280;70766;53.170;18.160;2023-07-31T10:04:57;100504.61;;;22.00;53.58
81299;BME280;70766;53.170;18.160;2023-07-31T10:07:27;100513.38;;;21.52;55.36
81299;BME280;70766;53.170;18.160;2023-07-31T10:10:00;100527.89;;;20.93;59.78
81299;BME280;70766;53.170;18.160;2023-07-31T10:12:33;100530.47;;;20.02;65.66
81299;BME280;70766;53.170;18.160;2023-07-31T10:15:04;100538.66;;;19.45;69.05
81299;BME280;70766;53.170;18.160;2023-07-31T10:17:35;100543.45;;;19.16;71.90
81299;BME280;70766;53.170;18.160;2023-07-31T10:20:06;100543.52;;;19.01;75.85
81299;BME280;70766;53.170;18.160;2023-07-31T10:22:35;100535.70;;;18.92;77.70
81299;BME280;70766;53.170;18.160;2023-07-31T10:25:09;100529.98;;;18.86;82.60
81299;BME280;70766;53.170;18.160;2023-07-31T10:27:38;100512.91;;;18.98;77.19
81299;BME280;70766;53.170;18.160;2023-07-31T10:30:18;100512.80;;;19.15;78.33
81299;BME280;70766;53.170;18.160;2023-07-31T10:32:48;100511.92;;;19.35;77.35
81299;BME280;70766;53.170;18.160;2023-07-31T10:35:18;100516.52;;;19.44;77.61
81299;BME280;70766;53.170;18.160;2023-07-31T10:37:46;100511.29;;;19.55;76.48
81299;BME280;70766;53.170;18.160;2023-07-31T10:40:27;100502.73;;;19.77;76.20
81299;BME280;70766;53.170;18.160;2023-07-31T10:42:56;100501.02;;;19.95;75.49
81299;BME280;70766;53.170;18.160;2023-07-31T10:45:31;100495.93;;;20.35;75.50
81299;BME280;70766;53.170;18.160;2023-07-31T10:48:07;100486.45;;;20.95;74.33
81299;BME280;70766;53.170;18.160;2023-07-31T10:50:56;100483.77;;;21.49;71.80
81299;BME280;70766;53.170;18.160;2023-07-31T10:53:28;100478.39;;;21.86;69.73
81299;BME280;70766;53.170;18.160;2023-07-31T10:56:01;100470.90;;;22.09;68.83
81299;BME280;70766;53.170;18.160;2023-07-31T10:58:32;100466.02;;;22.53;66.73
81299;BME280;70766;53.170;18.160;2023-07-31T11:01:02;100463.45;;;22.94;65.46
81299;BME280;70766;53.170;18.160;2023-07-31T11:03:46;100462.43;;;23.24;64.13
81299;BME280;70766;53.170;18.160;2023-07-31T11:06:16;100456.19;;;23.43;62.20
81299;BME280;70766;53.170;18.160;2023-07-31T11:08:50;100452.67;;;23.43;63.88
81299;BME280;70766;53.170;18.160;2023-07-31T11:11:20;100448.56;;;23.15;62.87
81299;BME280;70766;53.170;18.160;2023-07-31T11:13:50;100444.00;;;22.82;64.62
81299;BME280;70766;53.170;18.160;2023-07-31T11:16:22;100440.02;;;22.64;65.36
81299;BME280;70766;53.170;18.160;2023-07-31T11:18:52;100442.74;;;22.51;64.54
81299;BME280;70766;53.170;18.160;2023-07-31T11:21:23;100439.66;;;22.33;64.60
81299;BME280;70766;53.170;18.160;2023-07-31T11:23:56;100437.09;;;22.03;65.63
81299;BME280;70766;53.170;18.160;2023-07-31T11:26:27;100435.73;;;21.72;66.24
81299;BME280;70766;53.170;18.160;2023-07-31T11:28:55;100439.13;;;21.56;66.66
81299;BME280;70766;53.170;18.160;2023-07-31T11:31:24;100437.77;;;21.26;67.11
81299;BME280;70766;53.170;18.160;2023-07-31T11:34:04;100438.57;;;20.97;67.80
81299;BME280;70766;53.170;18.160;2023-07-31T11:36:33;100439.42;;;20.73;66.63
81299;BME280;70766;53.170;18.160;2023-07-31T11:39:05;100437.98;;;20.41;64.99
81299;BME280;70766;53.170;18.160;2023-07-31T11:41:34;100442.00;;;20.26;64.77
81299;BME280;70766;53.170;18.160;2023-07-31T11:44:02;100443.49;;;20.16;65.86
81299;BME280;70766;53.170;18.160;2023-07-31T11:46:51;100449.23;;;20.02;66.39
81299;BME280;70766;53.170;18.160;2023-07-31T11:49:19;100448.11;;;19.97;67.05
81299;BME280;70766;53.170;18.160;2023-07-31T11:51:49;100450.33;;;19.90;67.46
81299;BME280;70766;53.170;18.160;2023-07-31T11:54:18;100450.77;;;19.97;67.82
81299;BME280;70766;53.170;18.160;2023-07-31T11:56:47;100439.65;;;20.26;67.25
81299;BME280;70766;53.170;18.160;2023-07-31T11:59:16;100444.40;;;20.69;65.79
81299;BME280;70766;53.170;18.160;2023-07-31T12:01:44;100438.06;;;21.03;64.77
81299;BME280;70766;53.170;18.160;2023-07-31T12:04:14;100436.67;;;21.55;62.44
81299;BME280;70766;53.170;18.160;2023-07-31T12:06:53;100434.77;;;21.88;61.59
81299;BME280;70766;53.170;18.160;2023-07-31T12:09:26;100431.03;;;22.02;60.57
81299;BME280;70766;53.170;18.160;2023-07-31T12:11:55;100439.39;;;22.01;61.20
81299;BME280;70766;53.170;18.160;2023-07-31T12:14:25;100444.26;;;22.10;61.12
81299;BME280;70766;53.170;18.160;2023-07-31T12:16:58;100440.60;;;22.12;60.96
81299;BME280;70766;53.170;18.160;2023-07-31T12:19:28;100433.98;;;21.95;61.21
81299;BME280;70766;53.170;18.160;2023-07-31T12:22:13;100428.79;;;22.09;61.19
81299;BME280;70766;53.170;18.160;2023-07-31T12:24:43;100426.38;;;22.47;61.02
81299;BME280;70766;53.170;18.160;2023-07-31T12:27:15;100414.84;;;22.67;59.50
81299;BME280;70766;53.170;18.160;2023-07-31T12:29:43;100417.42;;;22.68;59.64
81299;BME280;70766;53.170;18.160;2023-07-31T12:32:22;100414.42;;;22.84;59.56
81299;BME280;70766;53.170;18.160;2023-07-31T12:34:52;100422.05;;;22.93;59.92
81299;BME280;70766;53.170;18.160;2023-07-31T12:37:21;100417.81;;;22.91;58.36
81299;BME280;70766;53.170;18.160;2023-07-31T12:39:50;100417.00;;;22.95;58.66
81299;BME280;70766;53.170;18.160;2023-07-31T12:42:18;100412.20;;;22.82;58.12
81299;BME280;70766;53.170;18.160;2023-07-31T12:44:46;100408.49;;;22.77;58.43
81299;BME280;70766;53.170;18.160;2023-07-31T12:47:14;100406.27;;;22.70;58.11
81299;BME280;70766;53.170;18.160;2023-07-31T12:49:43;100405.77;;;22.42;58.33
81299;BME280;70766;53.170;18.160;2023-07-31T12:52:11;100403.73;;;22.01;58.88
81299;BME280;70766;53.170;18.160;2023-07-31T12:54:39;100410.13;;;21.52;60.56